Time;durP1;ratioP1;P1;durP2;ratioP2;P2;SDS_P1;SDS_P2;PMS_P1;PMS_P2;Temp;Humidity;BMP_temperature;BMP_pressure;BME280_temperature;BME280_humidity;BME280_pressure;Samples;Min_cycle;Max_cycle;Signal;HPM_P1;HPM_P2
2023/07/01 00:01:40;;;;;;;;;4.25;4.00;;;;;20.61;53.60;100431.19;5055939;28;45628;-85
2023/07/01 00:04:06;;;;;;;;;2.00;2.00;;;;;20.53;53.92;100420.59;5054448;28;48548;-88
2023/07/01 00:06:31;;;;;;;;;2.00;2.00;;;;;20.54;54.51;100424.91;5056864;28;45892;-84
2023/07/01 00:08:57;;;;;;;;;2.50;2.00;;;;;20.51;54.38;100428.75;5056059;28;45736;-89
2023/07/01 00:11:22;;;;;;;;;2.50;2.25;;;;;20.49;54.62;100424.63;5057317;28;45870;-87
2023/07/01 00:13:48;;;;;;;;;1.75;1.75;;;;;20.46;54.86;100416.97;5072796;28;48178;-84
2023/07/01 00:19:35;;;;;;;;;2.00;2.00;;;;;20.45;55.39;100412.66;5054925;28;45685;-87
2023/07/01 00:22:02;;;;;;;;;4.00;4.00;;;;;20.45;55.25;100416.16;5054749;28;45867;-87
2023/07/01 00:24:27;;;;;;;;;3.75;3.00;;;;;20.46;55.31;100406.31;5058338;28;46660;-84
2023/07/01 00:26:52;;;;;;;;;7.00;6.00;;;;;20.47;55.39;100406.16;5056447;28;45746;-84
2023/07/01 00:29:18;;;;;;;;;6.00;5.00;;;;;20.48;55.39;100399.81;5055159;28;45676;-85
2023/07/01 00:35:32;;;;;;;;;23.75;21.75;;;;;20.48;55.43;100378.53;5047288;28;45704;-87
2023/07/01 00:37:58;;;;;;;;;25.00;24.00;;;;;20.51;55.30;100396.00;5054591;28;45820;-88
2023/07/01 00:40:24;;;;;;;;;21.50;19.00;;;;;20.47;55.34;100389.34;5053895;28;45667;-88
2023/07/01 00:42:50;;;;;;;;;15.75;14.00;;;;;20.48;55.02;100391.84;5053926;28;45728;-87
2023/07/01 00:45:15;;;;;;;;;9.00;8.50;;;;;20.49;55.69;100384.69;5053460;28;46662;-86
2023/07/01 00:47:41;;;;;;;;;7.00;5.75;;;;;20.47;55.54;100382.19;5051719;28;48248;-85
2023/07/01 00:50:11;;;;;;;;;7.00;6.50;;;;;20.46;55.56;100388.53;5053219;28;45613;-88
2023/07/01 00:52:40;;;;;;;;;4.75;4.75;;;;;20.49;56.07;100382.03;5053659;28;45910;-84
2023/07/01 00:55:07;;;;;;;;;5.25;5.00;;;;;20.49;56.20;100382.03;5054919;28;46571;-87
2023/07/01 00:57:33;;;;;;;;;7.75;7.00;;;;;20.50;56.11;100379.19;5056201;28;47139;-86
2023/07/01 01:00:01;;;;;;;;;4.75;4.00;;;;;20.45;56.47;100364.75;5071795;28;45730;-85
2023/07/01 01:02:33;;;;;;;;;4.25;4.25;;;;;20.41;56.75;100363.44;5056813;28;45710;-87
2023/07/01 01:05:13;;;;;;;;;6.00;4.25;;;;;20.41;57.00;100363.44;5057166;28;46341;-90
2023/07/01 01:08:05;;;;;;;;;3.00;3.00;;;;;20.40;56.89;100361.81;5057138;28;45614;-88
2023/07/01 01:10:33;;;;;;;;;4.00;3.00;;;;;20.40;57.31;100362.66;5056368;28;46004;-86
2023/07/01 01:13:02;;;;;;;;;7.75;7.00;;;;;20.40;57.39;100353.81;5058827;28;46109;-86
2023/07/01 01:15:27;;;;;;;;;3.75;3.50;;;;;20.37;57.51;100362.16;5058240;28;47766;-84
2023/07/01 01:17:57;;;;;;;;;3.75;3.00;;;;;20.37;58.65;100356.81;5076044;28;47587;-88
2023/07/01 01:20:24;;;;;;;;;3.00;3.00;;;;;20.28;58.43;100360.53;5075438;28;45597;-87
2023/07/01 01:23:01;;;;;;;;;4.50;3.75;;;;;20.25;58.82;100355.56;5061065;28;45740;-87
2023/07/01 01:25:35;;;;;;;;;3.00;2.50;;;;;20.18;59.28;100350.13;5059895;28;47318;-88
2023/07/01 01:28:02;;;;;;;;;3.50;3.00;;;;;20.17;59.62;100347.66;5061126;28;46888;-88
2023/07/01 01:30:31;;;;;;;;;6.25;5.00;;;;;20.16;59.79;100351.31;5063402;28;45673;-89
2023/07/01 01:32:57;;;;;;;;;4.25;4.00;;;;;20.15;59.72;100346.97;5070108;28;45465;-87
2023/07/01 01:35:22;;;;;;;;;5.00;4.00;;;;;20.12;59.90;100348.19;5077116;28;45564;-85
2023/07/01 01:38:15;;;;;;;;;4.25;4.25;;;;;20.11;60.33;100330.56;5063074;28;45545;-86
2023/07/01 01:40:58;;;;;;;;;4.50;4.50;;;;;20.11;60.39;100331.38;5063376;28;45565;-89
2023/07/01 01:44:02;;;;;;;;;4.00;4.00;;;;;20.11;60.50;100334.06;5063743;28;45530;-87
2023/07/01 01:46:28;;;;;;;;;6.00;6.00;;;;;20.09;60.42;100316.59;5062365;28;45847;-85
2023/07/01 01:49:03;;;;;;;;;7.25;6.00;;;;;20.15;60.85;100315.88;5059851;28;46517;-85
2023/07/01 01:51:31;;;;;;;;;6.00;5.25;;;;;20.14;60.53;100314.22;5064602;28;45873;-84
2023/07/01 01:53:58;;;;;;;;;4.00;4.00;;;;;20.17;60.57;100310.41;5068956;28;45568;-85
2023/07/01 01:56:26;;;;;;;;;3.75;3.75;;;;;20.17;61.03;100308.56;5080617;28;47549;-86
2023/07/01 01:58:51;;;;;;;;;5.00;5.00;;;;;20.17;60.87;100308.56;5077849;28;48352;-87
2023/07/01 02:01:17;;;;;;;;;5.75;5.00;;;;;20.18;61.32;100307.56;5061254;28;45627;-88
2023/07/01 02:03:44;;;;;;;;;5.50;4.50;;;;;20.16;61.51;100301.59;5077498;28;45763;-86
2023/07/01 02:06:09;;;;;;;;;6.50;5.25;;;;;20.15;61.33;100304.41;5061359;28;45535;-87
2023/07/01 02:08:35;;;;;;;;;4.25;4.25;;;;;20.13;61.17;100302.75;5063562;28;45534;-85
2023/07/01 02:11:00;;;;;;;;;5.75;5.00;;;;;20.13;61.72;100300.09;5064777;28;45577;-88
2023/07/01 02:13:25;;;;;;;;;5.50;5.50;;;;;20.13;61.46;100298.47;5081388;28;45612;-88
2023/07/01 02:15:51;;;;;;;;;4.50;4.50;;;;;20.13;61.84;100293.16;5066778;28;47005;-88
2023/07/01 02:18:16;;;;;;;;;6.00;4.00;;;;;20.09;61.92;100284.69;5066503;28;45503;-86
2023/07/01 02:20:41;;;;;;;;;3.00;3.00;;;;;20.06;62.05;100280.56;5065571;28;45500;-89
2023/07/01 02:23:07;;;;;;;;;4.50;3.50;;;;;20.04;62.31;100279.91;5081919;28;45632;-86
2023/07/01 02:25:32;;;;;;;;;4.50;4.00;;;;;20.03;62.06;100280.06;5065874;28;45521;-85
2023/07/01 02:27:59;;;;;;;;;5.00;4.25;;;;;20.03;61.79;100283.56;5063307;28;45518;-83
2023/07/01 02:30:25;;;;;;;;;4.00;4.00;;;;;19.99;62.83;100276.13;5078063;28;45696;-86
2023/07/01 02:36:12;;;;;;;;;5.00;4.00;;;;;19.99;62.85;100268.13;5046553;28;45748;-89
2023/07/01 02:38:38;;;;;;;;;3.75;3.00;;;;;19.93;62.88;100267.00;5057192;28;45779;-88
2023/07/01 02:41:03;;;;;;;;;5.75;4.00;;;;;19.91;62.92;100258.41;5056604;28;45668;-86
2023/07/01 02:43:29;;;;;;;;;5.00;4.25;;;;;19.91;63.14;100258.41;5057557;28;45765;-87
2023/07/01 02:45:54;;;;;;;;;9.50;6.00;;;;;19.90;63.15;100259.41;5058795;28;46847;-85
2023/07/01 02:48:20;;;;;;;;;5.50;4.75;;;;;19.85;63.25;100255.63;5059908;28;45657;-90
2023/07/01 02:50:45;;;;;;;;;3.25;3.25;;;;;19.87;63.50;100264.22;5060991;28;45937;-89
2023/07/01 02:53:11;;;;;;;;;4.25;3.75;;;;;19.86;63.75;100251.97;5062439;28;45681;-92
2023/07/01 02:55:38;;;;;;;;;5.00;4.25;;;;;19.82;63.23;100246.16;5061282;28;45606;-84
2023/07/01 02:58:04;;;;;;;;;4.00;3.75;;;;;19.80;63.47;100242.03;5061409;28;46009;-88
2023/07/01 03:00:29;;;;;;;;;5.75;4.00;;;;;19.85;63.68;100253.78;5061293;28;45740;-87
2023/07/01 03:03:05;;;;;;;;;3.00;3.00;;;;;19.81;63.72;100241.03;5060433;28;45734;-91
2023/07/01 03:05:34;;;;;;;;;2.50;2.00;;;;;19.75;64.17;100245.22;5060438;28;45753;-93
2023/07/01 03:08:00;;;;;;;;;2.00;2.00;;;;;19.73;64.09;100241.91;5079461;28;47506;-85
2023/07/01 03:10:25;;;;;;;;;2.00;2.00;;;;;19.73;64.36;100241.91;5065754;28;45922;-86
2023/07/01 03:12:51;;;;;;;;;2.00;1.75;;;;;19.73;64.05;100241.06;5066317;28;45883;-93
2023/07/01 03:15:16;;;;;;;;;2.25;2.25;;;;;19.74;64.61;100240.09;5064096;28;45596;-91
2023/07/01 03:17:42;;;;;;;;;2.25;2.25;;;;;19.75;64.11;100239.09;5062322;28;45636;-90
2023/07/01 03:20:20;;;;;;;;;2.25;2.25;;;;;19.75;64.77;100236.44;5062184;28;45869;-91
2023/07/01 03:22:46;;;;;;;;;1.50;1.00;;;;;19.73;64.51;100230.44;5063143;28;45591;-93
2023/07/01 03:25:11;;;;;;;;;4.00;3.00;;;;;19.74;64.47;100226.78;5060156;28;48177;-88
2023/07/01 03:27:37;;;;;;;;;2.00;2.00;;;;;19.77;64.65;100231.75;5061184;28;46518;-88
2023/07/01 03:30:02;;;;;;;;;2.00;2.00;;;;;19.75;64.53;100231.94;5060866;28;46081;-93
2023/07/01 03:32:28;;;;;;;;;1.00;1.00;;;;;19.78;64.70;100233.41;5061815;28;45553;-89
2023/07/01 03:34:55;;;;;;;;;2.00;1.75;;;;;19.77;64.89;100232.56;5058670;28;45848;-88
2023/07/01 03:37:20;;;;;;;;;1.00;1.00;;;;;19.76;65.10;100222.94;5018489;28;1154129;-85
2023/07/01 03:39:45;;;;;;;;;2.25;2.00;;;;;19.74;64.89;100211.66;5059417;28;45852;-93
2023/07/01 03:42:11;;;;;;;;;2.50;1.50;;;;;19.75;65.31;100212.50;5057644;28;45600;-92
2023/07/01 03:44:36;;;;;;;;;2.00;2.00;;;;;19.74;65.11;100216.16;5059960;28;45602;-89
2023/07/01 03:47:02;;;;;;;;;2.25;1.50;;;;;19.69;65.85;100219.34;5059263;28;45954;-92
2023/07/01 03:49:27;;;;;;;;;2.00;2.00;;;;;19.67;65.90;100216.03;5060141;28;45715;-89
2023/07/01 03:51:52;;;;;;;;;2.00;2.00;;;;;19.62;65.76;100202.44;5060796;28;45659;-91
2023/07/01 03:54:18;;;;;;;;;1.75;1.75;;;;;19.65;66.17;100213.53;5058688;28;46534;-87
2023/07/01 03:56:44;;;;;;;;;1.00;1.00;;;;;19.65;65.98;100208.22;5061371;28;45512;-91
2023/07/01 03:59:09;;;;;;;;;1.00;0.75;;;;;19.65;66.62;100204.75;5062390;28;45489;-87
2023/07/01 04:01:36;;;;;;;;;1.00;1.00;;;;;19.63;66.71;100196.97;5064380;28;45695;-91
2023/07/01 04:04:03;;;;;;;;;1.00;1.00;;;;;19.62;66.84;100194.47;5064934;28;46516;-92
2023/07/01 04:06:28;;;;;;;;;2.00;1.00;;;;;19.65;66.02;100199.41;5061683;28;47975;-91
2023/07/01 04:08:54;;;;;;;;;1.75;1.00;;;;;19.64;67.01;100184.50;5062175;28;45618;-90
2023/07/01 04:11:20;;;;;;;;;0.75;0.75;;;;;19.63;66.31;100185.50;5061286;28;45677;-90
2023/07/01 04:13:46;;;;;;;;;1.00;1.00;;;;;19.65;66.30;100192.28;5059624;28;45838;-91
2023/07/01 04:16:11;;;;;;;;;1.00;1.00;;;;;19.68;66.72;100185.78;5059672;28;45581;-90
2023/07/01 04:21:58;;;;;;;;;1.00;1.00;;;;;19.69;66.69;100187.44;5060608;28;45626;-88
2023/07/01 04:24:24;;;;;;;;;1.00;1.00;;;;;19.68;66.42;100188.44;5059220;28;46374;-87
2023/07/01 04:26:49;;;;;;;;;0.50;0.50;;;;;19.70;66.62;100184.59;5058786;28;45712;-89
2023/07/01 04:29:14;;;;;;;;;0.00;0.00;;;;;19.69;67.13;100174.16;5058206;28;45964;-92
2023/07/01 04:31:40;;;;;;;;;1.00;1.00;;;;;19.74;67.10;100189.56;5059914;28;45708;-86
2023/07/01 04:37:27;;;;;;;;;0.50;0.50;;;;;19.72;67.20;100176.44;5047011;28;45799;-92
2023/07/01 04:39:52;;;;;;;;;0.00;0.00;;;;;19.74;67.34;100186.91;5058614;28;45988;-89
2023/07/01 04:42:18;;;;;;;;;1.00;0.50;;;;;19.74;67.20;100185.09;5062005;28;45761;-86
2023/07/01 04:44:44;;;;;;;;;0.75;0.75;;;;;19.72;67.29;100175.63;5062026;28;46534;-91
2023/07/01 04:47:09;;;;;;;;;0.00;0.00;;;;;19.74;67.43;100178.94;5060172;28;46485;-89
2023/07/01 04:49:34;;;;;;;;;0.00;0.00;;;;;19.75;67.36;100177.94;5076545;28;45691;-89
2023/07/01 04:52:00;;;;;;;;;0.00;0.00;;;;;19.74;67.31;100169.13;5062024;28;45300;-89
2023/07/01 04:54:25;;;;;;;;;0.50;0.00;;;;;19.76;67.11;100169.75;5064637;28;45918;-85
2023/07/01 04:56:51;;;;;;;;;0.00;0.00;;;;;19.74;67.15;100155.84;5063454;28;46309;-91
2023/07/01 04:59:16;;;;;;;;;0.00;0.00;;;;;19.74;67.75;100163.81;5059344;28;45703;-90
2023/07/01 05:01:41;;;;;;;;;0.00;0.00;;;;;19.78;67.85;100174.91;5056913;28;45948;-90
2023/07/01 05:07:29;;;;;;;;;0.00;0.00;;;;;19.72;67.55;100170.31;5058381;28;45970;-86
2023/07/01 05:09:54;;;;;;;;;0.00;0.00;;;;;19.74;68.32;100166.47;5059492;28;45642;-87
2023/07/01 05:12:19;;;;;;;;;0.00;0.00;;;;;19.71;67.86;100156.19;5059599;28;45946;-87
2023/07/01 05:14:45;;;;;;;;;1.00;1.00;;;;;19.73;68.17;100159.50;5056417;28;46296;-85
2023/07/01 05:17:10;;;;;;;;;0.25;0.00;;;;;19.73;68.31;100158.66;5055643;28;45712;-89
2023/07/01 05:19:35;;;;;;;;;0.00;0.00;;;;;19.77;68.15;100157.28;5055545;28;45606;-87
2023/07/01 05:22:01;;;;;;;;;0.00;0.00;;;;;19.76;68.04;100161.78;5058157;28;46044;-85
2023/07/01 05:24:27;;;;;;;;;1.00;0.75;;;;;19.74;68.49;100150.53;5059342;28;46219;-90
2023/07/01 05:26:52;;;;;;;;;0.75;0.75;;;;;19.75;68.59;100154.00;5058915;28;45783;-87
2023/07/01 05:29:20;;;;;;;;;1.00;1.00;;;;;19.82;68.30;100152.25;5058373;28;45661;-88
2023/07/01 05:31:48;;;;;;;;;0.00;0.00;;;;;19.84;68.15;100158.25;5058305;28;45606;-88
2023/07/01 05:37:35;;;;;;;;;0.00;0.00;;;;;19.89;67.78;100161.19;5055375;28;45671;-87
2023/07/01 05:40:00;;;;;;;;;0.00;0.00;;;;;19.87;68.49;100152.56;5055386;28;46003;-86
2023/07/01 05:42:26;;;;;;;;;0.00;0.00;;;;;19.89;68.46;100153.22;5059557;28;45506;-86
2023/07/01 05:44:51;;;;;;;;;0.25;0.25;;;;;19.91;68.68;100154.69;5056689;28;47380;-85
2023/07/01 05:47:16;;;;;;;;;0.00;0.00;;;;;19.91;68.47;100151.22;5057770;28;46196;-90
2023/07/01 05:53:04;;;;;;;;;0.00;0.00;;;;;19.93;69.19;100160.66;5058481;28;45733;-87
2023/07/01 05:55:29;;;;;;;;;0.00;0.00;;;;;19.90;69.28;100142.41;5058352;28;45509;-85
2023/07/01 05:57:55;;;;;;;;;0.00;0.00;;;;;19.91;69.39;100153.88;5056931;28;47937;-86
2023/07/01 06:00:21;;;;;;;;;0.00;0.00;;;;;19.89;69.61;100151.38;5057691;28;45677;-85
2023/07/01 06:02:47;;;;;;;;;0.00;0.00;;;;;19.92;69.55;100156.31;5057477;28;45784;-89
2023/07/01 06:05:12;;;;;;;;;0.00;0.00;;;;;19.93;69.86;100163.31;5056300;28;46473;-84
2023/07/01 06:07:37;;;;;;;;;0.00;0.00;;;;;19.93;69.76;100149.19;5058745;28;45562;-88
2023/07/01 06:10:03;;;;;;;;;1.00;1.00;;;;;19.93;69.53;100163.31;5058889;28;45840;-85
2023/07/01 06:12:28;;;;;;;;;0.00;0.00;;;;;19.96;69.66;100164.78;5058186;28;45545;-83
2023/07/01 06:14:54;;;;;;;;;0.00;0.00;;;;;19.95;69.60;100165.78;5057597;28;45798;-86
2023/07/01 06:17:19;;;;;;;;;0.00;0.00;;;;;19.93;69.88;100154.50;5056866;28;46548;-84
2023/07/01 06:23:06;;;;;;;;;0.00;0.00;;;;;20.01;69.82;100157.91;5057102;28;45742;-86
2023/07/01 06:25:32;;;;;;;;;0.00;0.00;;;;;20.03;69.54;100157.72;5056625;28;46235;-88
2023/07/01 06:27:57;;;;;;;;;0.00;0.00;;;;;20.03;69.90;100150.56;5056571;28;45748;-88
2023/07/01 06:30:23;;;;;;;;;0.00;0.00;;;;;20.06;69.99;100149.41;5056294;28;45686;-85
2023/07/01 06:32:48;;;;;;;;;0.00;0.00;;;;;20.06;69.54;100139.59;5056355;28;45454;-87
2023/07/01 06:35:13;;;;;;;;;0.00;0.00;;;;;20.13;70.06;100145.81;5056110;28;45772;-85
2023/07/01 06:37:39;;;;;;;;;0.00;0.00;;;;;20.14;69.86;100149.31;5071626;28;48105;-84
2023/07/01 06:40:05;;;;;;;;;0.00;0.00;;;;;20.13;69.76;100137.03;5057324;28;46097;-84
2023/07/01 06:42:30;;;;;;;;;0.50;0.00;;;;;20.16;69.76;100134.00;5056931;28;45840;-84
2023/07/01 06:44:55;;;;;;;;;0.00;0.00;;;;;20.23;69.80;100142.06;5056705;28;45744;-85
2023/07/01 06:47:21;;;;;;;;;0.00;0.00;;;;;20.26;69.77;100142.53;5056683;28;45735;-86
2023/07/01 06:53:08;;;;;;;;;1.00;0.00;;;;;20.31;69.64;100134.84;5054603;28;45683;-84
2023/07/01 06:55:33;;;;;;;;;0.00;0.00;;;;;20.37;69.71;100141.28;5055681;28;46733;-87
2023/07/01 06:58:02;;;;;;;;;0.00;0.00;;;;;20.41;69.54;100134.56;5056002;28;46215;-83
2023/07/01 07:00:29;;;;;;;;;0.00;0.00;;;;;20.45;69.58;100138.53;5056552;28;45624;-88
2023/07/01 07:02:54;;;;;;;;;0.00;0.00;;;;;20.47;69.58;100137.31;5055387;28;45708;-86
2023/07/01 07:05:20;;;;;;;;;0.00;0.00;;;;;20.44;69.39;100126.22;5058411;28;45663;-86
2023/07/01 07:07:45;;;;;;;;;0.00;0.00;;;;;20.49;69.46;100137.97;5058028;28;47024;-87
2023/07/01 07:10:11;;;;;;;;;1.00;0.50;;;;;20.54;69.43;100137.41;5058534;28;45900;-88
2023/07/01 07:12:36;;;;;;;;;0.00;0.00;;;;;20.56;69.33;100138.06;5057110;28;45617;-84
2023/07/01 07:15:02;;;;;;;;;0.00;0.00;;;;;20.56;69.35;100137.25;5057403;28;45591;-87
2023/07/01 07:17:27;;;;;;;;;0.00;0.00;;;;;20.57;69.29;100131.72;5057621;28;45526;-87
2023/07/01 07:23:14;;;;;;;;;0.00;0.00;;;;;20.65;69.52;100144.13;5057752;28;45744;-87
2023/07/01 07:25:39;;;;;;;;;0.00;0.00;;;;;20.66;69.09;100138.63;5058697;28;46337;-88
2023/07/01 07:28:05;;;;;;;;;0.25;0.25;;;;;20.68;69.19;100141.91;5055801;28;45627;-84
2023/07/01 07:30:30;;;;;;;;;0.00;0.00;;;;;20.71;68.92;100144.19;5055564;28;45506;-86
2023/07/01 07:32:56;;;;;;;;;1.00;0.25;;;;;20.76;69.28;100146.31;5054935;28;45632;-87
2023/07/01 07:38:43;;;;;;;;;0.00;0.00;;;;;20.82;69.04;100151.72;5047607;28;45999;-85
2023/07/01 07:41:10;;;;;;;;;0.00;0.00;;;;;20.86;69.02;100145.00;5060868;28;45759;-88
2023/07/01 07:43:35;;;;;;;;;0.00;0.00;;;;;20.87;69.27;100141.31;5059831;28;45505;-84
2023/07/01 07:46:00;;;;;;;;;0.00;0.00;;;;;20.87;69.58;100146.66;5057702;28;46433;-87
2023/07/01 07:48:26;;;;;;;;;1.50;1.00;;;;;20.84;68.90;100141.69;5056644;28;46477;-85
2023/07/01 07:50:51;;;;;;;;;1.00;1.00;;;;;20.87;69.06;100137.84;5055842;28;45565;-85
2023/07/01 07:53:16;;;;;;;;;0.50;0.00;;;;;20.89;68.95;100138.50;5056583;28;45804;-87
2023/07/01 07:55:42;;;;;;;;;0.50;0.50;;;;;20.94;69.10;100147.53;5055716;28;45578;-84
2023/07/01 07:58:09;;;;;;;;;0.00;0.00;;;;;20.98;68.73;100139.19;5055803;28;45917;-85
2023/07/01 08:00:34;;;;;;;;;0.25;0.00;;;;;21.02;68.48;100127.13;5056341;28;45938;-87
2023/07/01 08:03:00;;;;;;;;;0.25;0.25;;;;;21.05;68.43;100134.78;5056672;28;46021;-90
2023/07/01 08:08:47;;;;;;;;;0.00;0.00;;;;;21.14;67.62;100134.50;5058138;28;45918;-87
2023/07/01 08:11:12;;;;;;;;;0.00;0.00;;;;;21.17;67.62;100119.94;5059834;28;45554;-91
2023/07/01 08:13:37;;;;;;;;;0.00;0.00;;;;;21.22;67.06;100120.19;5058265;28;45494;-87
2023/07/01 08:16:04;;;;;;;;;0.50;0.50;;;;;21.30;67.03;100123.59;5058451;28;45552;-89
2023/07/01 08:18:30;;;;;;;;;0.00;0.00;;;;;21.36;66.95;100124.66;5061757;28;46158;-86
2023/07/01 08:20:56;;;;;;;;;0.00;0.00;;;;;21.42;66.70;100134.56;5062984;28;45632;-83
2023/07/01 08:23:21;;;;;;;;;0.25;0.00;;;;;21.44;66.55;100135.19;5063512;28;45663;-85
2023/07/01 08:25:46;;;;;;;;;0.00;0.00;;;;;21.43;66.29;100119.41;5061218;28;47470;-88
2023/07/01 08:28:12;;;;;;;;;0.00;0.00;;;;;21.44;66.72;100139.69;5062068;28;45677;-85
2023/07/01 08:30:37;;;;;;;;;0.25;0.00;;;;;21.48;66.29;100130.31;5061579;28;45803;-87
2023/07/01 08:33:03;;;;;;;;;0.00;0.00;;;;;21.49;66.43;100130.09;5061611;28;45636;-89
2023/07/01 08:38:50;;;;;;;;;0.75;0.00;;;;;21.61;66.13;100125.09;5060496;28;45848;-86
2023/07/01 08:41:18;;;;;;;;;0.75;0.75;;;;;21.62;66.19;100132.91;5061997;28;45640;-89
2023/07/01 08:43:47;;;;;;;;;0.50;0.50;;;;;21.65;65.89;100129.00;5059854;28;45735;-89
2023/07/01 08:46:19;;;;;;;;;0.00;0.00;;;;;21.63;66.29;100141.72;5060816;28;46440;-88
2023/07/01 08:48:46;;;;;;;;;0.00;0.00;;;;;21.54;70.22;100162.34;5062382;28;45893;-89
2023/07/01 08:51:20;;;;;;;;;0.00;0.00;;;;;21.27;70.71;100182.59;5062992;28;45740;-85
2023/07/01 08:53:47;;;;;;;;;0.00;0.00;;;;;20.92;71.01;100154.91;5061696;28;45486;-86
2023/07/01 08:56:13;;;;;;;;;0.50;0.00;;;;;20.63;72.15;100160.25;5060160;28;45774;-86
2023/07/01 08:58:40;;;;;;;;;0.00;0.00;;;;;20.37;73.90;100149.25;5057685;28;45634;-86
2023/07/01 09:01:06;;;;;;;;;0.00;0.00;;;;;20.20;74.54;100155.72;5054326;28;45707;-84
2023/07/01 09:03:35;;;;;;;;;0.00;0.00;;;;;20.02;75.44;100143.63;5059460;28;45628;-85
2023/07/01 09:09:22;;;;;;;;;0.00;0.00;;;;;19.77;75.10;100155.47;5055288;28;45770;-88
2023/07/01 09:11:47;;;;;;;;;0.25;0.25;;;;;19.70;75.13;100142.06;5055251;28;45661;-87
2023/07/01 09:14:13;;;;;;;;;0.00;0.00;;;;;19.70;75.14;100138.59;5055541;28;45582;-83
2023/07/01 09:16:39;;;;;;;;;0.00;0.00;;;;;19.67;75.75;100136.28;5055483;28;47539;-87
2023/07/01 09:19:05;;;;;;;;;0.00;0.00;;;;;19.74;74.79;100133.75;5057187;28;45609;-84
2023/07/01 09:21:32;;;;;;;;;0.00;0.00;;;;;19.72;74.70;100128.59;5073098;28;45585;-83
2023/07/01 09:23:59;;;;;;;;;0.00;0.00;;;;;19.80;74.74;100141.00;5057413;28;45900;-84
2023/07/01 09:26:26;;;;;;;;;0.00;0.00;;;;;19.88;74.17;100143.56;5059858;28;45660;-87
2023/07/01 09:28:53;;;;;;;;;0.00;0.00;;;;;19.97;73.82;100137.19;5061298;28;47258;-87
2023/07/01 09:31:19;;;;;;;;;0.00;0.00;;;;;20.06;73.47;100136.09;5061260;28;45718;-87
2023/07/01 09:40:27;;;;;;;;;0.00;0.00;;;;;20.52;72.61;100142.09;5060324;28;45834;-87
2023/07/01 09:42:56;;;;;;;;;0.00;0.00;;;;;20.63;71.67;100130.97;5061618;28;45695;-85
2023/07/01 09:45:21;;;;;;;;;1.00;0.75;;;;;20.77;71.59;100132.81;5062543;28;45593;-87
2023/07/01 09:47:52;;;;;;;;;0.25;0.25;;;;;20.90;70.54;100135.63;5059252;28;47148;-84
2023/07/01 09:53:38;;;;;;;;;0.00;0.00;;;;;21.14;69.69;100166.47;5059752;28;45701;-88
2023/07/01 09:56:04;;;;;;;;;0.00;0.00;;;;;21.19;69.03;100155.22;5060154;28;45707;-86
2023/07/01 09:58:33;;;;;;;;;0.75;0.75;;;;;21.23;69.18;100140.50;5059217;28;46462;-89
2023/07/01 10:01:02;;;;;;;;;1.00;0.00;;;;;21.28;68.58;100138.09;5057495;28;46555;-87
2023/07/01 10:03:28;;;;;;;;;0.00;0.00;;;;;21.37;68.01;100141.50;5060331;28;45703;-88
2023/07/01 10:09:15;;;;;;;;;0.00;0.00;;;;;21.57;68.07;100153.16;5057872;28;46434;-89
2023/07/01 10:11:41;;;;;;;;;0.00;0.00;;;;;21.62;67.39;100145.41;5058524;28;46279;-89
2023/07/01 10:14:07;;;;;;;;;0.00;0.00;;;;;21.66;67.11;100152.81;5060832;28;45818;-86
2023/07/01 10:16:43;;;;;;;;;0.25;0.00;;;;;21.67;66.98;100141.16;5062310;28;45654;-90
2023/07/01 10:25:53;;;;;;;;;1.50;0.50;;;;;21.81;66.02;100142.06;5054239;28;45755;-86
2023/07/01 10:28:26;;;;;;;;;0.00;0.00;;;;;21.86;65.50;100173.53;5055536;28;45776;-91
2023/07/01 10:30:54;;;;;;;;;1.25;1.00;;;;;21.90;64.69;100150.78;5054725;28;46715;-88
2023/07/01 10:33:35;;;;;;;;;0.25;0.25;;;;;21.94;64.12;100152.03;5055404;28;45890;-86
2023/07/01 10:36:06;;;;;;;;;0.75;0.75;;;;;22.01;65.00;100143.09;5056225;28;45617;-89
2023/07/01 10:38:33;;;;;;;;;0.00;0.00;;;;;22.06;65.08;100150.50;5056353;28;45699;-88
2023/07/01 10:41:00;;;;;;;;;0.50;0.50;;;;;22.06;63.57;100132.66;5055083;28;45721;-87
2023/07/01 10:43:29;;;;;;;;;0.50;0.50;;;;;22.17;63.75;100150.81;5055418;28;46131;-90
2023/07/01 10:46:13;;;;;;;;;0.75;0.75;;;;;22.20;63.29;100133.56;5054823;28;45942;-89
2023/07/01 10:49:02;;;;;;;;;1.00;0.00;;;;;22.30;63.78;100158.06;5054594;28;45811;-88
2023/07/01 10:51:51;;;;;;;;;0.00;0.00;;;;;22.37;63.59;100145.59;5055836;28;46343;-87
2023/07/01 10:54:31;;;;;;;;;0.25;0.00;;;;;22.44;63.69;100146.44;5058037;28;45842;-91
2023/07/01 10:57:15;;;;;;;;;1.00;1.00;;;;;22.46;62.70;100136.38;5059205;28;45737;-89
2023/07/01 10:59:41;;;;;;;;;1.00;1.00;;;;;22.48;62.48;100139.69;5059569;28;46096;-83
2023/07/01 11:02:08;;;;;;;;;1.00;1.00;;;;;22.52;62.24;100132.91;5061350;28;45783;-87
2023/07/01 11:08:06;;;;;;;;;2.00;1.00;;;;;22.62;60.72;100135.22;5059765;28;45792;-89
2023/07/01 11:10:34;;;;;;;;;2.00;1.75;;;;;22.66;61.00;100128.47;5061099;28;45818;-85
2023/07/01 11:13:02;;;;;;;;;1.00;1.00;;;;;22.70;60.04;100113.69;5059350;28;45693;-87
2023/07/01 11:15:27;;;;;;;;;2.00;2.00;;;;;22.79;61.29;100130.41;5055928;28;48408;-86
2023/07/01 11:17:54;;;;;;;;;2.00;1.25;;;;;22.85;59.98;100127.75;5058014;28;45794;-86
2023/07/01 11:23:50;;;;;;;;;1.00;1.00;;;;;23.01;59.50;100140.75;5058870;28;45972;-87
2023/07/01 11:26:27;;;;;;;;;1.25;1.00;;;;;23.09;60.65;100138.94;5061741;28;46917;-87
2023/07/01 11:28:53;;;;;;;;;0.50;0.50;;;;;23.10;59.97;100129.91;5059501;28;45761;-88
2023/07/01 11:31:21;;;;;;;;;1.00;1.00;;;;;23.14;61.03;100126.63;5061145;28;45446;-84
2023/07/01 11:33:51;;;;;;;;;1.50;1.00;;;;;23.19;59.93;100123.34;5058888;28;46433;-87
2023/07/01 11:39:44;;;;;;;;;1.75;1.00;;;;;23.28;59.05;100122.09;5054655;28;45601;-92
2023/07/01 11:42:09;;;;;;;;;0.00;0.00;;;;;23.35;60.01;100144.34;5057118;28;45404;-91
2023/07/01 11:44:37;;;;;;;;;1.00;1.00;;;;;23.36;60.42;100144.16;5060396;28;46784;-84
2023/07/01 11:47:10;;;;;;;;;0.00;0.00;;;;;23.34;58.48;100158.72;5060024;28;45752;-90
2023/07/01 11:49:37;;;;;;;;;1.00;0.75;;;;;23.33;60.89;100173.13;5058821;28;45609;-88
2023/07/01 11:55:36;;;;;;;;;1.00;1.00;;;;;23.13;59.98;100156.22;5061372;28;45514;-87
2023/07/01 11:58:01;;;;;;;;;1.00;1.00;;;;;23.13;60.29;100157.03;5061663;28;45972;-89
2023/07/01 12:00:28;;;;;;;;;1.75;1.00;;;;;23.14;60.44;100171.22;5061902;28;45741;-91
2023/07/01 12:02:54;;;;;;;;;0.25;0.00;;;;;23.15;60.54;100202.28;5063597;28;45834;-92
2023/07/01 12:05:21;;;;;;;;;1.00;1.00;;;;;23.14;60.39;100179.25;5066079;28;45550;-87
2023/07/01 12:07:54;;;;;;;;;1.00;0.00;;;;;23.12;61.81;100190.13;5063372;28;48267;-88
2023/07/01 12:10:20;;;;;;;;;0.00;0.00;;;;;23.08;60.77;100223.63;5061731;28;45695;-90
2023/07/01 12:12:47;;;;;;;;;0.50;0.00;;;;;23.06;61.76;100195.44;5061853;28;45657;-88
2023/07/01 12:15:13;;;;;;;;;0.00;0.00;;;;;23.02;60.40;100166.47;5061886;28;45711;-88
2023/07/01 12:17:40;;;;;;;;;1.00;0.00;;;;;23.01;61.62;100198.72;5062060;28;46183;-89
2023/07/01 12:20:08;;;;;;;;;0.75;0.00;;;;;23.04;60.91;100200.19;5059519;28;45920;-88
2023/07/01 12:25:57;;;;;;;;;1.00;0.25;;;;;22.93;61.01;100209.59;5061076;28;46213;-86
2023/07/01 12:28:22;;;;;;;;;0.00;0.00;;;;;22.91;60.31;100195.59;5058861;28;47221;-86
2023/07/01 12:30:51;;;;;;;;;0.00;0.00;;;;;22.90;59.98;100210.81;5076796;28;46072;-88
2023/07/01 12:33:17;;;;;;;;;0.50;0.00;;;;;22.91;60.78;100207.13;5059760;28;45464;-88
2023/07/01 12:35:43;;;;;;;;;2.00;0.00;;;;;22.91;61.24;100214.31;5059750;28;46517;-87
2023/07/01 12:38:11;;;;;;;;;1.00;1.00;;;;;22.86;57.75;100216.75;5057388;28;46547;-90
2023/07/01 12:40:37;;;;;;;;;0.50;0.50;;;;;22.86;60.18;100230.94;5055936;28;45792;-92
2023/07/01 12:43:02;;;;;;;;;0.75;0.75;;;;;22.86;57.74;100206.06;5058319;28;45601;-84
2023/07/01 12:45:27;;;;;;;;;0.00;0.00;;;;;22.84;59.17;100210.78;5058729;28;47586;-86
2023/07/01 12:47:54;;;;;;;;;2.00;1.00;;;;;22.88;58.87;100206.69;5058919;28;45736;-87
2023/07/01 12:50:20;;;;;;;;;2.00;1.00;;;;;22.90;57.89;100202.78;5058632;28;45581;-84
2023/07/01 12:56:07;;;;;;;;;1.75;1.25;;;;;22.96;58.12;100209.19;5062740;28;45775;-86